createdAt,value
2023-05-19T00:00:32.196Z,11.50
2023-05-19T00:05:55.073Z,3.50
2023-05-19T00:11:00.804Z,7.10
2023-05-19T00:16:06.498Z,6.50
2023-05-19T00:21:11.740Z,6.00
2023-05-19T00:26:16.429Z,6.20
2023-05-19T00:31:22.195Z,3.50
2023-05-19T00:36:26.616Z,6.30
2023-05-19T00:41:31.095Z,8.00
2023-05-19T00:46:35.271Z,4.50
2023-05-19T00:51:41.614Z,5.90
2023-05-19T00:56:45.953Z,4.90
2023-05-19T01:01:50.960Z,5.10
2023-05-19T01:06:57.307Z,4.90
2023-05-19T01:12:02.728Z,6.40
2023-05-19T01:17:23.508Z,6.80
2023-05-19T01:22:55.867Z,6.30
2023-05-19T01:28:18.528Z,5.30
2023-05-19T01:33:25.017Z,6.10
2023-05-19T01:38:30.210Z,6.50
2023-05-19T01:43:36.001Z,8.80
2023-05-19T01:48:42.665Z,13.30
2023-05-19T01:53:46.721Z,9.10
2023-05-19T01:59:04.629Z,12.90
2023-05-19T02:04:44.280Z,9.70
2023-05-19T02:10:12.345Z,13.00
2023-05-19T02:20:27.533Z,10.90
2023-05-19T02:25:32.189Z,8.40
2023-05-19T02:30:37.114Z,8.00
2023-05-19T02:35:41.459Z,7.10
2023-05-19T02:40:45.151Z,7.10
2023-05-19T02:45:49.646Z,7.70
2023-05-19T02:50:55.316Z,5.60
2023-05-19T02:56:00.495Z,5.80
2023-05-19T03:01:04.911Z,7.60
2023-05-19T03:06:10.035Z,6.80
2023-05-19T03:11:16.162Z,10.10
2023-05-19T03:16:20.937Z,9.00
2023-05-19T03:21:24.750Z,7.40
2023-05-19T03:26:29.702Z,8.30
2023-05-19T03:31:33.767Z,8.90
2023-05-19T03:36:40.613Z,7.30
2023-05-19T03:41:44.312Z,7.60
2023-05-19T03:46:51.236Z,5.70
2023-05-19T03:51:56.438Z,6.90
2023-05-19T03:57:00.760Z,6.90
2023-05-19T04:02:05.837Z,8.10
2023-05-19T04:07:10.189Z,8.20
2023-05-19T04:12:14.944Z,10.60
2023-05-19T04:17:19.015Z,9.50
2023-05-19T04:22:23.453Z,7.50
2023-05-19T04:27:29.570Z,7.20
2023-05-19T04:32:33.886Z,5.90
2023-05-19T04:37:39.641Z,6.60
2023-05-19T04:42:46.562Z,7.80
2023-05-19T04:47:52.982Z,7.10
2023-05-19T04:52:59.408Z,8.10
2023-05-19T04:58:02.826Z,7.00
2023-05-19T05:03:08.449Z,8.40
2023-05-19T05:08:12.638Z,8.40
2023-05-19T05:13:17.371Z,25.60
2023-05-19T05:18:22.759Z,5.80
2023-05-19T05:23:27.759Z,5.50
2023-05-19T05:28:33.520Z,7.00
2023-05-19T05:33:39.594Z,9.50
2023-05-19T05:38:43.992Z,7.40
2023-05-19T05:43:48.829Z,6.00
2023-05-19T05:48:56.777Z,9.50
2023-05-19T05:54:02.827Z,7.40
2023-05-19T05:59:08.140Z,7.00
2023-05-19T06:04:12.235Z,6.00
2023-05-19T06:09:17.152Z,5.70
2023-05-19T06:14:22.564Z,6.20
2023-05-19T06:19:27.135Z,5.60
2023-05-19T06:24:32.310Z,3.60
2023-05-19T06:29:36.185Z,5.20
2023-05-19T06:34:41.561Z,3.50
2023-05-19T06:39:45.740Z,4.50
2023-05-19T06:44:51.405Z,5.20
2023-05-19T06:49:55.915Z,5.00
2023-05-19T06:55:00.482Z,3.20
2023-05-19T07:00:07.721Z,3.30
2023-05-19T07:05:12.532Z,4.60
2023-05-19T07:10:17.591Z,3.60
2023-05-19T07:15:22.771Z,3.60
2023-05-19T07:20:27.179Z,4.80
2023-05-19T07:25:31.754Z,3.90
2023-05-19T07:30:38.071Z,5.50
2023-05-19T07:35:43.606Z,2.80
2023-05-19T07:40:49.761Z,2.80
2023-05-19T07:45:56.577Z,2.90
2023-05-19T07:51:00.973Z,2.70
2023-05-19T07:56:05.609Z,3.70
2023-05-19T08:01:09.784Z,3.50
2023-05-19T08:06:14.376Z,2.30
2023-05-19T08:11:20.029Z,4.50
2023-05-19T08:16:24.955Z,2.60
2023-05-19T08:21:29.364Z,4.50
2023-05-19T08:26:35.197Z,2.60
2023-05-19T08:31:41.966Z,5.20
2023-05-19T08:36:47.196Z,2.40
2023-05-19T08:41:51.440Z,1.30
2023-05-19T08:46:58.962Z,2.80
2023-05-19T08:52:24.684Z,1.80
2023-05-19T08:57:31.471Z,1.50
2023-05-19T09:02:50.315Z,2.00
2023-05-19T09:08:05.750Z,4.00
2023-05-19T09:13:11.117Z,2.10
2023-05-19T09:18:15.894Z,2.40
2023-05-19T09:23:21.706Z,4.90
2023-05-19T09:28:28.745Z,7.70
2023-05-19T09:38:41.163Z,3.90
2023-05-19T09:43:58.869Z,2.20
2023-05-19T09:54:17.414Z,2.70
2023-05-19T09:59:26.102Z,3.60
2023-05-19T10:04:32.521Z,2.30
2023-05-19T10:09:38.993Z,5.30
2023-05-19T10:14:43.558Z,2.70
2023-05-19T10:19:51.712Z,2.60
2023-05-19T10:24:58.712Z,5.40
2023-05-19T10:30:38.419Z,4.30
2023-05-19T10:36:09.399Z,3.50
2023-05-19T10:41:37.907Z,7.10
2023-05-19T10:46:43.822Z,3.80
2023-05-19T10:51:49.439Z,5.10
2023-05-19T10:57:00.020Z,2.90
2023-05-19T11:02:10.728Z,7.50
2023-05-19T11:07:23.127Z,5.40
2023-05-19T11:12:31.582Z,7.80
2023-05-19T11:17:40.661Z,5.60
2023-05-19T11:23:09.887Z,5.40
2023-05-19T11:28:30.352Z,8.00
2023-05-19T11:33:41.870Z,6.60
2023-05-19T11:38:52.629Z,6.40
2023-05-19T11:49:21.739Z,5.50
2023-05-19T11:54:37.272Z,4.60
2023-05-19T11:59:47.446Z,4.00
2023-05-19T12:04:54.880Z,7.00
2023-05-19T12:10:00.891Z,10.30
2023-05-19T12:15:05.680Z,7.40
2023-05-19T12:20:12.980Z,6.60
2023-05-19T12:25:18.548Z,6.40
2023-05-19T12:30:32.886Z,5.50
2023-05-19T12:35:40.182Z,9.90
2023-05-19T12:40:48.383Z,8.40
2023-05-19T12:45:55.572Z,8.70
2023-05-19T12:51:01.273Z,7.60
2023-05-19T12:56:17.542Z,8.90
2023-05-19T13:01:25.107Z,6.70
2023-05-19T13:06:31.806Z,6.30
2023-05-19T13:11:38.827Z,8.00
2023-05-19T13:16:44.790Z,8.40
2023-05-19T13:21:51.670Z,9.20
2023-05-19T13:26:58.403Z,7.50
2023-05-19T13:32:04.157Z,10.50
2023-05-19T13:37:15.226Z,9.20
2023-05-19T13:42:21.210Z,7.30
2023-05-19T13:47:26.313Z,11.40
2023-05-19T13:52:31.806Z,6.70
2023-05-19T13:57:37.684Z,9.30
2023-05-19T14:02:44.701Z,10.10
2023-05-19T14:07:49.898Z,11.00
2023-05-19T14:13:25.763Z,10.80
2023-05-19T14:18:22.629Z,11.80
2023-05-19T14:23:32.694Z,11.30
2023-05-19T14:28:39.198Z,13.70
2023-05-19T14:33:44.311Z,11.20
2023-05-19T14:38:49.254Z,7.70
2023-05-19T14:43:54.979Z,9.10
2023-05-19T14:49:03.665Z,10.90
2023-05-19T14:54:10.544Z,13.50
2023-05-19T14:59:17.551Z,7.70
2023-05-19T15:04:26.534Z,10.80
2023-05-19T15:09:34.932Z,8.70
2023-05-19T15:14:40.421Z,7.30
2023-05-19T15:19:46.533Z,8.80
2023-05-19T15:24:52.916Z,10.90
2023-05-19T15:30:00.502Z,9.90
2023-05-19T15:35:06.588Z,7.70
2023-05-19T15:40:16.792Z,10.90
2023-05-19T15:45:24.167Z,11.70
2023-05-19T15:50:30.446Z,12.60
2023-05-19T15:55:36.776Z,14.00
2023-05-19T16:00:44.129Z,8.90
2023-05-19T16:05:54.192Z,9.80
2023-05-19T16:11:02.506Z,10.80
2023-05-19T16:16:08.004Z,16.00
2023-05-19T16:21:14.334Z,15.70
2023-05-19T16:26:19.958Z,9.60
2023-05-19T16:31:25.438Z,11.50
2023-05-19T16:36:32.687Z,16.50
2023-05-19T16:41:40.622Z,16.40
2023-05-19T16:46:46.431Z,11.10
2023-05-19T16:51:53.432Z,14.90
2023-05-19T16:57:04.675Z,11.50
2023-05-19T17:02:09.672Z,13.90
2023-05-19T17:07:17.985Z,12.80
2023-05-19T17:12:23.528Z,19.90
2023-05-19T17:17:28.326Z,13.90
2023-05-19T17:22:34.122Z,13.60
2023-05-19T17:27:39.696Z,19.20
2023-05-19T17:32:45.078Z,15.20
2023-05-19T17:37:50.794Z,18.00
2023-05-19T17:42:57.024Z,17.80
2023-05-19T17:48:02.275Z,17.20
2023-05-19T17:53:07.334Z,15.20
2023-05-19T17:58:13.288Z,15.00
2023-05-19T18:03:19.228Z,10.50
2023-05-19T18:08:27.057Z,9.80
2023-05-19T18:13:32.733Z,15.20
2023-05-19T18:18:41.304Z,17.30
2023-05-19T18:23:47.665Z,14.40
2023-05-19T18:28:53.486Z,14.10
2023-05-19T18:33:58.485Z,13.00
2023-05-19T18:39:06.133Z,12.70
2023-05-19T18:44:12.225Z,13.80
2023-05-19T18:49:17.846Z,22.70
2023-05-19T18:54:23.234Z,16.60
2023-05-19T18:59:28.320Z,12.60
2023-05-19T19:04:32.698Z,19.50
2023-05-19T19:09:38.125Z,16.10
2023-05-19T19:14:43.141Z,19.00
2023-05-19T19:19:47.772Z,21.90
2023-05-19T19:24:53.858Z,22.30
2023-05-19T19:29:59.340Z,18.40
2023-05-19T19:35:04.314Z,24.80
2023-05-19T19:40:10.220Z,23.20
2023-05-19T19:45:15.849Z,19.30
2023-05-19T19:50:21.028Z,37.40
2023-05-19T19:55:26.314Z,21.70
2023-05-19T20:00:31.602Z,21.30
2023-05-19T20:05:38.537Z,25.00
2023-05-19T20:15:48.741Z,18.80
2023-05-19T20:20:54.027Z,21.10
2023-05-19T20:26:10.875Z,22.60
2023-05-19T20:31:17.052Z,17.90
2023-05-19T20:36:20.543Z,18.40
2023-05-19T20:41:25.431Z,18.50
2023-05-19T20:46:30.218Z,16.50
2023-05-19T20:51:35.129Z,21.80
2023-05-19T20:56:39.230Z,19.80
2023-05-19T21:01:43.961Z,19.20
2023-05-19T21:06:48.841Z,24.20
2023-05-19T21:11:58.539Z,19.10
2023-05-19T21:17:04.705Z,16.70
2023-05-19T21:22:10.104Z,26.90
2023-05-19T21:27:15.519Z,16.50
2023-05-19T21:32:20.388Z,23.60
2023-05-19T21:37:24.865Z,19.50
2023-05-19T21:42:30.502Z,20.10
2023-05-19T21:47:35.200Z,23.30
2023-05-19T21:52:39.016Z,25.30
2023-05-19T21:57:43.277Z,21.10
2023-05-19T22:02:47.275Z,20.80
2023-05-19T22:07:52.033Z,22.40
2023-05-19T22:12:58.665Z,22.70
2023-05-19T22:18:04.061Z,24.00
2023-05-19T22:23:09.406Z,25.30
2023-05-19T22:28:14.955Z,27.90
2023-05-19T22:33:20.322Z,17.80
2023-05-19T22:38:24.855Z,22.00
2023-05-19T22:43:28.981Z,18.00
2023-05-19T22:48:37.237Z,20.30
2023-05-19T22:53:43.598Z,19.40
2023-05-19T22:58:48.871Z,20.90
2023-05-19T23:03:55.929Z,19.90
2023-05-19T23:09:05.055Z,16.70
2023-05-19T23:14:10.379Z,21.20
2023-05-19T23:19:15.483Z,23.00
2023-05-19T23:24:19.488Z,18.10
2023-05-19T23:29:24.485Z,30.80
2023-05-19T23:34:32.694Z,17.90
2023-05-19T23:39:38.991Z,28.90
2023-05-19T23:44:43.887Z,18.00
2023-05-19T23:49:49.333Z,25.80
2023-05-19T23:54:55.340Z,21.90
